createdAt,value
2022-11-27T00:01:10.944Z,6.75
2022-11-27T00:03:39.245Z,6.99
2022-11-27T00:06:12.951Z,7.02
2022-11-27T00:08:40.898Z,6.61
2022-11-27T00:11:10.291Z,5.84
2022-11-27T00:13:38.583Z,5.85
2022-11-27T00:16:07.672Z,5.22
2022-11-27T00:18:36.204Z,5.33
2022-11-27T00:21:05.580Z,5.78
2022-11-27T00:23:35.675Z,6.21
2022-11-27T00:26:04.818Z,6.57
2022-11-27T00:28:33.145Z,6.55
2022-11-27T00:31:01.507Z,6.62
2022-11-27T00:33:29.735Z,6.54
2022-11-27T00:35:57.708Z,6.63
2022-11-27T00:38:25.630Z,6.54
2022-11-27T00:40:54.955Z,6.35
2022-11-27T00:43:22.847Z,6.50
2022-11-27T00:45:50.851Z,6.49
2022-11-27T00:48:18.729Z,6.24
2022-11-27T00:50:46.788Z,5.61
2022-11-27T00:53:14.685Z,5.09
2022-11-27T00:55:42.614Z,5.37
2022-11-27T00:58:11.846Z,4.81
2022-11-27T01:00:39.771Z,4.56
2022-11-27T01:03:07.883Z,4.73
2022-11-27T01:05:37.127Z,4.95
2022-11-27T01:08:05.443Z,5.06
2022-11-27T01:10:33.449Z,5.14
2022-11-27T01:13:01.327Z,5.07
2022-11-27T01:15:30.547Z,4.69
2022-11-27T01:17:58.492Z,4.49
2022-11-27T01:20:26.366Z,5.05
2022-11-27T01:22:54.384Z,4.78
2022-11-27T01:25:26.725Z,4.68
2022-11-27T01:27:55.077Z,5.28
2022-11-27T01:30:23.060Z,5.44
2022-11-27T01:32:52.349Z,5.94
2022-11-27T01:35:20.295Z,6.13
2022-11-27T01:37:48.209Z,6.10
2022-11-27T01:40:16.142Z,6.18
2022-11-27T01:42:44.044Z,6.44
2022-11-27T01:45:16.345Z,6.54
2022-11-27T01:47:47.990Z,6.57
2022-11-27T01:50:22.422Z,6.60
2022-11-27T01:52:53.895Z,6.69
2022-11-27T01:55:29.865Z,6.57
2022-11-27T01:58:01.616Z,6.48
2022-11-27T02:00:29.524Z,6.24
2022-11-27T02:02:57.775Z,6.05
2022-11-27T02:05:29.231Z,6.23
2022-11-27T02:08:00.052Z,5.56
2022-11-27T02:10:40.080Z,5.32
2022-11-27T02:13:14.505Z,5.30
2022-11-27T02:15:47.595Z,5.76
2022-11-27T02:18:23.089Z,5.60
2022-11-27T02:20:58.872Z,5.38
2022-11-27T02:23:57.303Z,5.81
2022-11-27T02:26:42.452Z,5.55
2022-11-27T02:29:13.417Z,5.67
2022-11-27T02:31:46.764Z,5.20
2022-11-27T02:34:24.514Z,5.81
2022-11-27T02:36:58.693Z,5.99
2022-11-27T02:39:32.713Z,5.96
2022-11-27T02:42:07.642Z,6.12
2022-11-27T02:44:43.071Z,6.25
2022-11-27T02:47:13.206Z,6.30
2022-11-27T02:49:44.274Z,6.45
2022-11-27T02:52:15.705Z,6.60
2022-11-27T02:54:47.065Z,6.70
2022-11-27T02:57:17.003Z,6.70
2022-11-27T02:59:46.990Z,6.72
2022-11-27T03:02:19.970Z,6.47
2022-11-27T03:04:52.505Z,5.95
2022-11-27T03:07:26.951Z,5.67
2022-11-27T03:10:00.298Z,5.90
2022-11-27T03:12:28.861Z,5.67
2022-11-27T03:14:58.254Z,5.76
2022-11-27T03:17:38.684Z,5.34
2022-11-27T03:20:12.220Z,5.40
2022-11-27T03:22:40.167Z,5.06
2022-11-27T03:25:08.903Z,5.18
2022-11-27T03:27:42.219Z,4.87
2022-11-27T03:30:13.901Z,5.10
2022-11-27T03:32:42.089Z,5.31
2022-11-27T03:35:12.886Z,5.30
2022-11-27T03:37:41.070Z,5.53
2022-11-27T03:40:10.742Z,5.85
2022-11-27T03:42:49.855Z,6.16
2022-11-27T03:45:31.247Z,6.45
2022-11-27T03:48:19.168Z,6.57
2022-11-27T03:51:00.943Z,6.68
2022-11-27T03:53:38.095Z,6.76
2022-11-27T03:56:12.806Z,6.77
2022-11-27T03:58:48.657Z,6.77
2022-11-27T04:01:21.075Z,6.83
2022-11-27T04:03:49.223Z,6.87
2022-11-27T04:06:17.388Z,6.95
2022-11-27T04:08:46.848Z,6.93
2022-11-27T04:11:15.072Z,6.99
2022-11-27T04:13:42.997Z,6.98
2022-11-27T04:16:11.159Z,7.03
2022-11-27T04:18:41.254Z,7.05
2022-11-27T04:21:09.133Z,7.05
2022-11-27T04:23:37.792Z,7.02
2022-11-27T04:26:06.174Z,7.06
2022-11-27T04:28:34.242Z,7.10
2022-11-27T04:31:02.500Z,7.12
2022-11-27T04:33:30.472Z,7.13
2022-11-27T04:35:59.759Z,7.08
2022-11-27T04:38:27.682Z,7.03
2022-11-27T04:40:55.612Z,7.01
2022-11-27T04:43:23.585Z,6.88
2022-11-27T04:45:51.742Z,6.91
2022-11-27T04:48:19.733Z,6.92
2022-11-27T04:50:47.712Z,6.98
2022-11-27T04:53:17.058Z,6.95
2022-11-27T04:55:44.951Z,7.04
2022-11-27T04:58:12.903Z,7.02
2022-11-27T05:00:40.849Z,7.06
2022-11-27T05:03:09.084Z,7.08
2022-11-27T05:05:36.984Z,7.01
2022-11-27T05:08:05.251Z,6.59
2022-11-27T05:10:34.697Z,6.79
2022-11-27T05:13:02.670Z,6.95
2022-11-27T05:15:30.578Z,6.99
2022-11-27T05:17:58.500Z,7.03
2022-11-27T05:20:26.404Z,7.05
2022-11-27T05:22:54.350Z,7.03
2022-11-27T05:25:22.255Z,7.02
2022-11-27T05:27:51.573Z,7.05
2022-11-27T05:30:19.575Z,7.09
2022-11-27T05:32:47.457Z,7.10
2022-11-27T05:35:15.498Z,7.12
2022-11-27T05:37:43.449Z,7.16
2022-11-27T05:40:11.875Z,7.10
2022-11-27T05:42:39.800Z,7.05
2022-11-27T05:45:09.964Z,7.15
2022-11-27T05:47:37.876Z,7.19
2022-11-27T05:50:06.578Z,7.16
2022-11-27T05:52:34.463Z,7.21
2022-11-27T05:55:02.469Z,7.22
2022-11-27T05:57:31.033Z,7.23
2022-11-27T05:59:59.188Z,7.24
2022-11-27T06:02:29.601Z,7.21
2022-11-27T06:04:57.815Z,7.21
2022-11-27T06:07:25.926Z,7.18
2022-11-27T06:09:53.951Z,7.17
2022-11-27T06:12:21.865Z,7.17
2022-11-27T06:14:49.805Z,7.15
2022-11-27T06:17:17.731Z,7.17
2022-11-27T06:19:47.047Z,7.16
2022-11-27T06:22:14.937Z,7.05
2022-11-27T06:24:43.345Z,7.08
2022-11-27T06:27:11.331Z,7.12
2022-11-27T06:29:39.616Z,7.12
2022-11-27T06:32:07.728Z,7.17
2022-11-27T06:34:35.690Z,7.12
2022-11-27T06:37:08.055Z,7.16
2022-11-27T06:39:39.915Z,7.16
2022-11-27T06:42:07.810Z,7.12
2022-11-27T06:44:35.726Z,7.06
2022-11-27T06:47:03.619Z,7.19
2022-11-27T06:49:31.559Z,7.32
2022-11-27T06:51:59.617Z,7.35
2022-11-27T06:54:28.979Z,7.39
2022-11-27T06:56:56.960Z,7.25
2022-11-27T06:59:25.384Z,7.20
2022-11-27T07:01:55.650Z,7.17
2022-11-27T07:04:24.424Z,7.25
2022-11-27T07:06:52.383Z,7.25
2022-11-27T07:09:20.347Z,7.24
2022-11-27T07:11:49.699Z,7.22
2022-11-27T07:14:17.575Z,7.20
2022-11-27T07:16:45.557Z,7.18
2022-11-27T07:19:14.712Z,7.22
2022-11-27T07:21:42.656Z,7.07
2022-11-27T07:24:10.585Z,7.02
2022-11-27T07:26:38.490Z,7.10
2022-11-27T07:29:07.778Z,7.19
2022-11-27T07:31:35.791Z,7.25
2022-11-27T07:34:06.896Z,7.22
2022-11-27T07:36:37.938Z,7.24
2022-11-27T07:39:05.852Z,7.33
2022-11-27T07:41:34.362Z,7.39
2022-11-27T07:44:02.424Z,7.37
2022-11-27T07:46:31.725Z,7.37
2022-11-27T07:49:00.694Z,7.46
2022-11-27T07:51:29.192Z,7.49
2022-11-27T07:53:57.120Z,7.51
2022-11-27T07:56:25.083Z,7.32
2022-11-27T07:58:52.955Z,7.49
2022-11-27T08:01:21.763Z,7.45
2022-11-27T08:03:51.423Z,7.36
2022-11-27T08:06:21.656Z,7.46
2022-11-27T08:08:50.305Z,7.25
2022-11-27T08:11:20.199Z,7.31
2022-11-27T08:13:48.270Z,7.48
2022-11-27T08:16:16.804Z,7.44
2022-11-27T08:18:44.706Z,7.29
2022-11-27T08:21:14.128Z,7.36
2022-11-27T08:23:42.225Z,7.41
2022-11-27T08:26:11.195Z,7.48
2022-11-27T08:28:39.743Z,7.43
2022-11-27T08:31:09.076Z,7.57
2022-11-27T08:33:37.611Z,7.58
2022-11-27T08:36:09.006Z,7.49
2022-11-27T08:38:39.985Z,7.33
2022-11-27T08:41:09.801Z,7.36
2022-11-27T08:43:38.165Z,7.21
2022-11-27T08:46:07.531Z,7.44
2022-11-27T08:48:36.122Z,7.51
2022-11-27T08:51:07.586Z,7.52
2022-11-27T08:53:36.162Z,7.41
2022-11-27T08:56:08.997Z,7.52
2022-11-27T08:58:37.212Z,7.65
2022-11-27T09:01:09.947Z,7.63
2022-11-27T09:03:38.206Z,7.72
2022-11-27T09:06:08.654Z,7.71
2022-11-27T09:08:36.792Z,7.87
2022-11-27T09:11:05.537Z,7.95
2022-11-27T09:13:37.037Z,7.98
2022-11-27T09:16:05.512Z,7.94
2022-11-27T09:18:34.053Z,8.03
2022-11-27T09:21:03.592Z,7.85
2022-11-27T09:23:31.656Z,7.79
2022-11-27T09:25:59.918Z,8.00
2022-11-27T09:28:31.360Z,8.07
2022-11-27T09:31:03.314Z,8.03
2022-11-27T09:33:33.461Z,8.11
2022-11-27T09:36:05.842Z,8.06
2022-11-27T09:38:34.287Z,8.17
2022-11-27T09:41:08.818Z,8.33
2022-11-27T09:43:43.085Z,8.29
2022-11-27T09:46:21.626Z,8.31
2022-11-27T09:48:52.574Z,7.99
2022-11-27T09:51:26.689Z,7.64
2022-11-27T09:54:01.651Z,8.07
2022-11-27T09:56:31.601Z,8.19
2022-11-27T09:59:01.188Z,8.19
2022-11-27T10:01:40.536Z,8.21
2022-11-27T10:04:18.984Z,7.82
2022-11-27T10:07:04.369Z,8.12
2022-11-27T10:09:47.563Z,8.10
2022-11-27T10:12:24.047Z,8.32
2022-11-27T10:15:04.196Z,8.37
2022-11-27T10:17:40.290Z,8.12
2022-11-27T10:20:28.990Z,7.73
2022-11-27T10:23:04.206Z,7.55
2022-11-27T10:25:40.652Z,7.91
2022-11-27T10:28:19.530Z,7.62
2022-11-27T10:30:53.229Z,7.79
2022-11-27T10:33:26.301Z,7.85
2022-11-27T10:35:55.033Z,8.00
2022-11-27T10:38:26.646Z,8.11
2022-11-27T10:41:06.425Z,7.92
2022-11-27T10:43:35.980Z,8.22
2022-11-27T10:46:10.290Z,8.35
2022-11-27T10:48:39.752Z,8.38
2022-11-27T10:51:15.708Z,8.32
2022-11-27T10:53:45.437Z,8.49
2022-11-27T10:56:43.480Z,8.37
2022-11-27T10:59:17.174Z,8.52
2022-11-27T11:01:47.262Z,8.60
2022-11-27T11:04:37.388Z,8.63
2022-11-27T11:07:25.437Z,8.62
2022-11-27T11:09:54.275Z,8.68
2022-11-27T11:12:24.656Z,8.72
2022-11-27T11:14:53.774Z,8.79
2022-11-27T11:17:26.184Z,8.79
2022-11-27T11:19:55.600Z,8.67
2022-11-27T11:22:23.731Z,8.59
2022-11-27T11:24:54.255Z,8.79
2022-11-27T11:27:27.478Z,8.86
2022-11-27T11:29:59.983Z,8.82
2022-11-27T11:32:30.827Z,8.63
2022-11-27T11:35:04.223Z,8.73
2022-11-27T11:37:34.897Z,8.65
2022-11-27T11:40:09.804Z,8.65
2022-11-27T11:42:50.025Z,8.51
2022-11-27T11:45:19.745Z,8.60
2022-11-27T11:47:49.276Z,8.66
2022-11-27T11:50:31.179Z,8.63
2022-11-27T11:53:03.536Z,8.72
2022-11-27T11:55:37.537Z,8.79
2022-11-27T11:58:26.716Z,8.84
2022-11-27T12:04:03.241Z,8.75
2022-11-27T12:06:44.659Z,8.78
2022-11-27T12:09:30.549Z,8.81
2022-11-27T12:12:05.803Z,8.82
2022-11-27T12:14:44.375Z,8.94
2022-11-27T12:17:25.010Z,8.98
2022-11-27T12:20:15.990Z,8.96
2022-11-27T12:23:28.282Z,8.97
2022-11-27T12:26:08.245Z,8.79
2022-11-27T12:28:57.537Z,8.89
2022-11-27T12:31:39.620Z,9.00
2022-11-27T12:34:11.505Z,8.60
2022-11-27T12:36:58.106Z,8.80
2022-11-27T12:39:33.807Z,8.78
2022-11-27T12:42:21.772Z,8.81
2022-11-27T12:44:57.468Z,8.84
2022-11-27T12:47:38.660Z,8.83
2022-11-27T12:50:15.519Z,8.93
2022-11-27T12:52:48.409Z,9.08
2022-11-27T12:55:22.853Z,8.72
2022-11-27T12:57:54.969Z,8.90
2022-11-27T13:00:26.187Z,8.92
2022-11-27T13:03:04.218Z,8.91
2022-11-27T13:05:38.747Z,8.99
2022-11-27T13:08:14.351Z,9.00
2022-11-27T13:10:50.585Z,8.97
2022-11-27T13:13:24.463Z,9.07
2022-11-27T13:15:59.003Z,8.98
2022-11-27T13:18:33.897Z,9.02
2022-11-27T13:21:05.623Z,9.01
2022-11-27T13:23:34.540Z,9.02
2022-11-27T13:26:07.188Z,9.01
2022-11-27T13:28:42.477Z,8.97
2022-11-27T13:31:20.175Z,8.93
2022-11-27T13:33:49.043Z,9.00
2022-11-27T13:36:23.479Z,9.04
2022-11-27T13:38:57.657Z,9.02
2022-11-27T13:41:33.427Z,8.98
2022-11-27T13:44:02.188Z,8.90
2022-11-27T13:46:32.460Z,8.94
2022-11-27T13:49:03.579Z,8.77
2022-11-27T13:51:33.800Z,8.86
2022-11-27T13:54:10.297Z,8.88
2022-11-27T13:56:40.202Z,8.80
2022-11-27T13:59:16.723Z,8.77
2022-11-27T14:01:55.776Z,8.66
2022-11-27T14:04:23.864Z,8.70
2022-11-27T14:06:59.180Z,8.59
2022-11-27T14:09:36.920Z,8.64
2022-11-27T14:12:20.115Z,8.48
2022-11-27T14:15:01.790Z,8.36
2022-11-27T14:17:36.987Z,8.34
2022-11-27T14:20:20.165Z,8.35
2022-11-27T14:25:38.985Z,8.18
2022-11-27T14:28:15.772Z,8.15
2022-11-27T14:30:48.174Z,8.27
2022-11-27T14:33:19.259Z,8.35
2022-11-27T14:35:49.831Z,8.28
2022-11-27T14:38:17.945Z,8.34
2022-11-27T14:40:46.335Z,8.36
2022-11-27T14:43:18.607Z,8.22
2022-11-27T14:45:49.586Z,8.28
2022-11-27T14:48:22.150Z,8.25
2022-11-27T14:50:51.517Z,8.19
2022-11-27T14:53:22.628Z,8.25
2022-11-27T14:55:53.866Z,8.21
2022-11-27T14:58:25.743Z,8.06
2022-11-27T15:00:57.667Z,7.99
2022-11-27T15:03:26.795Z,7.98
2022-11-27T15:05:58.535Z,7.90
2022-11-27T15:08:27.770Z,7.99
2022-11-27T15:10:57.865Z,7.93
2022-11-27T15:13:29.494Z,7.88
2022-11-27T15:16:01.960Z,7.90
2022-11-27T15:18:32.257Z,7.86
2022-11-27T15:21:01.287Z,7.93
2022-11-27T15:23:31.520Z,7.80
2022-11-27T15:26:15.922Z,7.66
2022-11-27T15:28:52.516Z,7.65
2022-11-27T15:31:29.600Z,7.77
2022-11-27T15:34:00.961Z,7.80
2022-11-27T15:36:35.992Z,7.77
2022-11-27T15:39:17.855Z,7.79
2022-11-27T15:41:54.646Z,7.67
2022-11-27T15:44:25.025Z,7.72
2022-11-27T15:46:55.626Z,7.62
2022-11-27T15:49:24.189Z,7.65
2022-11-27T15:51:52.562Z,7.54
2022-11-27T15:54:20.474Z,7.69
2022-11-27T15:56:48.455Z,7.71
2022-11-27T15:59:16.761Z,7.73
2022-11-27T16:01:46.140Z,7.67
2022-11-27T16:04:14.220Z,7.62
2022-11-27T16:06:42.191Z,7.68
2022-11-27T16:09:10.126Z,7.56
2022-11-27T16:11:38.080Z,7.34
2022-11-27T16:14:06.078Z,7.45
2022-11-27T16:16:35.321Z,7.54
2022-11-27T16:19:06.532Z,7.54
2022-11-27T16:21:35.933Z,7.46
2022-11-27T16:24:06.196Z,7.54
2022-11-27T16:26:34.560Z,7.54
2022-11-27T16:29:02.574Z,7.47
2022-11-27T16:31:30.993Z,7.52
2022-11-27T16:33:59.751Z,7.48
2022-11-27T16:36:30.046Z,7.53
2022-11-27T16:38:58.364Z,7.64
2022-11-27T16:41:27.020Z,7.63
2022-11-27T16:43:57.849Z,7.65
2022-11-27T16:46:28.395Z,7.60
2022-11-27T16:48:57.706Z,7.30
2022-11-27T16:51:28.447Z,7.52
2022-11-27T16:53:59.423Z,7.57
2022-11-27T16:56:29.372Z,7.55
2022-11-27T16:59:02.817Z,7.62
2022-11-27T17:01:36.064Z,7.61
2022-11-27T17:04:07.253Z,7.48
2022-11-27T17:06:36.318Z,7.51
2022-11-27T17:09:07.392Z,7.53
2022-11-27T17:11:37.389Z,7.44
2022-11-27T17:14:07.329Z,7.39
2022-11-27T17:16:37.025Z,7.50
2022-11-27T17:19:05.686Z,7.40
2022-11-27T17:21:35.210Z,7.49
2022-11-27T17:24:13.176Z,7.46
2022-11-27T17:26:44.936Z,7.45
2022-11-27T17:29:14.554Z,7.47
2022-11-27T17:31:42.930Z,7.46
2022-11-27T17:34:13.228Z,7.40
2022-11-27T17:36:43.001Z,7.36
2022-11-27T17:39:14.832Z,7.29
2022-11-27T17:41:44.879Z,7.30
2022-11-27T17:44:14.095Z,7.25
2022-11-27T17:46:44.971Z,7.25
2022-11-27T17:49:13.544Z,7.32
2022-11-27T17:51:42.053Z,7.27
2022-11-27T17:54:12.891Z,7.32
2022-11-27T17:56:40.981Z,7.28
2022-11-27T17:59:10.681Z,7.30
2022-11-27T18:01:39.844Z,7.12
2022-11-27T18:04:10.408Z,7.20
2022-11-27T18:06:38.803Z,7.12
2022-11-27T18:09:09.400Z,7.18
2022-11-27T18:11:39.704Z,7.17
2022-11-27T18:14:08.168Z,7.05
2022-11-27T18:16:38.125Z,7.17
2022-11-27T18:19:07.714Z,7.20
2022-11-27T18:21:36.254Z,7.14
2022-11-27T18:27:11.076Z,7.03
2022-11-27T18:29:41.720Z,7.07
2022-11-27T18:32:10.259Z,7.05
2022-11-27T18:34:38.345Z,7.06
2022-11-27T18:37:07.119Z,7.06
2022-11-27T18:39:36.401Z,7.04
2022-11-27T18:42:06.753Z,6.98
2022-11-27T18:44:39.577Z,7.01
2022-11-27T18:47:11.510Z,7.12
2022-11-27T18:49:40.529Z,7.13
2022-11-27T18:52:09.862Z,7.16
2022-11-27T18:54:38.306Z,7.12
2022-11-27T18:57:07.910Z,7.13
2022-11-27T18:59:36.385Z,7.00
2022-11-27T19:02:04.778Z,7.11
2022-11-27T19:04:32.862Z,7.01
2022-11-27T19:07:00.899Z,6.93
2022-11-27T19:09:29.276Z,6.92
2022-11-27T19:11:57.268Z,7.00
2022-11-27T19:14:26.610Z,6.99
2022-11-27T19:16:54.596Z,6.95
2022-11-27T19:19:53.324Z,6.96
2022-11-27T19:22:13.177Z,6.98
2022-11-27T19:24:41.449Z,7.04
2022-11-27T19:27:09.462Z,6.99
2022-11-27T19:29:38.816Z,6.96
2022-11-27T19:32:06.845Z,6.97
2022-11-27T19:34:35.085Z,6.98
2022-11-27T19:37:03.126Z,6.95
2022-11-27T19:39:31.065Z,6.97
2022-11-27T19:41:59.300Z,6.85
2022-11-27T19:44:27.601Z,6.93
2022-11-27T19:46:56.947Z,6.93
2022-11-27T19:49:26.150Z,6.95
2022-11-27T19:51:54.243Z,6.94
2022-11-27T19:54:22.192Z,6.84
2022-11-27T19:56:51.650Z,6.95
2022-11-27T19:59:24.380Z,7.02
2022-11-27T20:01:56.224Z,6.98
2022-11-27T20:04:29.249Z,6.83
2022-11-27T20:06:57.183Z,6.96
2022-11-27T20:09:25.216Z,6.88
2022-11-27T20:11:53.486Z,6.79
2022-11-27T20:14:21.744Z,6.93
2022-11-27T20:16:49.904Z,6.83
2022-11-27T20:19:20.214Z,6.64
2022-11-27T20:21:48.529Z,6.64
2022-11-27T20:24:17.141Z,6.60
2022-11-27T20:26:45.764Z,6.68
2022-11-27T20:29:15.742Z,6.61
2022-11-27T20:31:45.102Z,6.72
2022-11-27T20:34:20.399Z,6.57
2022-11-27T20:36:49.233Z,6.54
2022-11-27T20:39:21.212Z,6.42
2022-11-27T20:41:53.497Z,6.56
2022-11-27T20:44:23.483Z,6.53
2022-11-27T20:46:52.091Z,6.61
2022-11-27T20:49:22.760Z,6.50
2022-11-27T20:51:51.488Z,6.45
2022-11-27T20:54:23.102Z,6.38
2022-11-27T20:56:51.453Z,6.34
2022-11-27T20:59:20.073Z,6.43
2022-11-27T21:01:48.630Z,6.48
2022-11-27T21:04:20.770Z,6.48
2022-11-27T21:06:50.878Z,6.39
2022-11-27T21:09:20.661Z,6.40
2022-11-27T21:11:49.027Z,6.45
2022-11-27T21:14:18.274Z,6.38
2022-11-27T21:16:48.859Z,6.41
2022-11-27T21:19:20.095Z,6.48
2022-11-27T21:21:48.766Z,6.49
2022-11-27T21:24:18.580Z,6.53
2022-11-27T21:26:47.338Z,6.51
2022-11-27T21:29:16.915Z,6.32
2022-11-27T21:31:47.049Z,6.41
2022-11-27T21:34:16.428Z,6.48
2022-11-27T21:36:45.559Z,6.35
2022-11-27T21:39:20.236Z,6.41
2022-11-27T21:41:52.349Z,6.44
2022-11-27T21:44:22.342Z,6.48
2022-11-27T21:46:51.302Z,6.38
2022-11-27T21:49:21.664Z,6.37
2022-11-27T21:51:53.235Z,6.40
2022-11-27T21:54:24.622Z,6.47
2022-11-27T21:56:54.227Z,6.52
2022-11-27T21:59:22.329Z,6.46
2022-11-27T22:01:50.412Z,6.50
2022-11-27T22:04:18.894Z,6.44
2022-11-27T22:06:47.192Z,6.42
2022-11-27T22:09:16.220Z,6.48
2022-11-27T22:11:45.064Z,6.61
2022-11-27T22:14:16.317Z,6.55
2022-11-27T22:16:46.737Z,6.60
2022-11-27T22:19:16.562Z,6.65
2022-11-27T22:21:45.517Z,6.51
2022-11-27T22:24:18.860Z,6.60
2022-11-27T22:26:48.475Z,6.51
2022-11-27T22:29:18.094Z,6.52
2022-11-27T22:31:46.283Z,6.48
2022-11-27T22:34:16.962Z,6.47
2022-11-27T22:36:46.135Z,6.50
2022-11-27T22:39:14.424Z,6.53
2022-11-27T22:41:43.215Z,6.53
2022-11-27T22:44:15.698Z,6.37
2022-11-27T22:46:46.071Z,6.45
2022-11-27T22:49:16.421Z,6.52
2022-11-27T22:51:44.889Z,6.50
2022-11-27T22:54:17.205Z,6.50
2022-11-27T22:56:46.646Z,6.47
2022-11-27T23:02:07.226Z,6.42
2022-11-27T23:04:37.757Z,6.50
2022-11-27T23:07:06.714Z,6.39
2022-11-27T23:09:34.873Z,6.28
2022-11-27T23:12:02.921Z,6.25
2022-11-27T23:14:30.861Z,6.28
2022-11-27T23:16:58.922Z,6.36
2022-11-27T23:19:28.289Z,6.38
2022-11-27T23:21:56.309Z,6.30
2022-11-27T23:24:24.478Z,6.20
2022-11-27T23:26:52.445Z,6.24
2022-11-27T23:29:20.480Z,6.16
2022-11-27T23:31:48.591Z,6.16
2022-11-27T23:34:20.157Z,6.07
2022-11-27T23:36:49.544Z,6.23
2022-11-27T23:39:17.577Z,6.23
2022-11-27T23:41:46.356Z,6.31
2022-11-27T23:44:14.263Z,6.32
2022-11-27T23:46:42.279Z,6.41
2022-11-27T23:49:10.320Z,6.43
2022-11-27T23:51:38.282Z,6.50
2022-11-27T23:54:11.161Z,6.47
2022-11-27T23:56:39.910Z,6.44
2022-11-27T23:59:08.087Z,6.53
